createdAt,value
2018-04-14T00:01:50.935Z,76.20
2018-04-14T00:04:24.611Z,76.37
2018-04-14T00:06:57.976Z,76.17
2018-04-14T00:09:31.184Z,76.26
2018-04-14T00:12:04.801Z,76.37
2018-04-14T00:14:38.029Z,76.45
2018-04-14T00:17:11.455Z,76.95
2018-04-14T00:19:44.859Z,77.01
2018-04-14T00:22:19.351Z,77.27
2018-04-14T00:24:53.375Z,76.92
2018-04-14T00:27:27.441Z,77.16
2018-04-14T00:30:01.388Z,77.38
2018-04-14T00:32:34.607Z,77.21
2018-04-14T00:35:08.151Z,77.24
2018-04-14T00:37:41.325Z,77.60
2018-04-14T00:40:14.898Z,77.10
2018-04-14T00:42:48.634Z,76.98
2018-04-14T00:45:22.020Z,76.95
2018-04-14T00:47:56.633Z,76.91
2018-04-14T00:50:30.506Z,76.72
2018-04-14T00:53:12.887Z,76.79
2018-04-14T00:55:46.196Z,76.45
2018-04-14T00:58:19.813Z,76.39
2018-04-14T01:00:53.515Z,76.28
2018-04-14T01:03:27.004Z,76.19
2018-04-14T01:06:00.684Z,76.05
2018-04-14T01:08:34.915Z,75.67
2018-04-14T01:11:08.324Z,76.09
2018-04-14T01:13:41.767Z,76.17
2018-04-14T01:16:15.412Z,75.41
2018-04-14T01:18:48.591Z,75.08
2018-04-14T01:21:21.824Z,75.07
2018-04-14T01:23:55.610Z,75.45
2018-04-14T01:26:29.073Z,75.37
2018-04-14T01:29:02.326Z,75.34
2018-04-14T01:31:36.255Z,75.45
2018-04-14T01:34:09.960Z,75.18
2018-04-14T01:36:43.180Z,75.36
2018-04-14T01:39:17.879Z,76.53
2018-04-14T01:41:51.351Z,77.43
2018-04-14T01:44:24.661Z,77.85
2018-04-14T01:46:58.699Z,77.52
2018-04-14T01:49:31.884Z,78.10
2018-04-14T01:52:05.039Z,77.47
2018-04-14T01:54:39.465Z,77.13
2018-04-14T01:57:12.691Z,77.14
2018-04-14T01:59:46.123Z,77.00
2018-04-14T02:02:19.686Z,76.90
2018-04-14T02:04:53.004Z,77.62
2018-04-14T02:07:27.588Z,78.54
2018-04-14T02:10:01.039Z,78.70
2018-04-14T02:12:35.412Z,79.09
2018-04-14T02:15:08.898Z,78.59
2018-04-14T02:17:42.787Z,78.55
2018-04-14T02:20:16.230Z,78.27
2018-04-14T02:22:49.473Z,79.38
2018-04-14T02:25:22.858Z,79.48
2018-04-14T02:27:56.228Z,79.53
2018-04-14T02:30:29.585Z,79.50
2018-04-14T02:33:03.221Z,79.26
2018-04-14T02:35:36.455Z,79.13
2018-04-14T02:38:09.982Z,78.79
2018-04-14T02:40:43.444Z,78.60
2018-04-14T02:43:16.736Z,78.19
2018-04-14T02:45:50.087Z,78.26
2018-04-14T02:48:23.998Z,78.18
2018-04-14T02:50:57.187Z,78.14
2018-04-14T02:53:30.761Z,77.80
2018-04-14T02:56:04.609Z,77.57
2018-04-14T02:58:37.919Z,77.36
2018-04-14T03:01:11.125Z,77.57
2018-04-14T03:03:44.730Z,78.32
2018-04-14T03:06:18.339Z,77.87
2018-04-14T03:08:51.591Z,78.27
2018-04-14T03:11:24.920Z,78.67
2018-04-14T03:13:58.250Z,79.22
2018-04-14T03:16:31.933Z,78.93
2018-04-14T03:19:05.511Z,78.57
2018-04-14T03:21:39.106Z,77.81
2018-04-14T03:24:12.405Z,77.98
2018-04-14T03:26:46.015Z,78.57
2018-04-14T03:29:19.300Z,78.64
2018-04-14T03:31:52.664Z,78.87
2018-04-14T03:34:26.438Z,78.50
2018-04-14T03:36:59.641Z,78.52
2018-04-14T03:39:33.610Z,78.31
2018-04-14T03:42:07.857Z,78.37
2018-04-14T03:44:41.599Z,77.19
2018-04-14T03:47:15.015Z,76.50
2018-04-14T03:49:49.082Z,76.84
2018-04-14T03:52:24.601Z,76.47
2018-04-14T03:54:58.450Z,76.96
2018-04-14T03:57:32.017Z,76.57
2018-04-14T04:00:05.530Z,76.49
2018-04-14T04:02:39.403Z,75.40
2018-04-14T04:05:13.472Z,75.56
2018-04-14T04:07:46.803Z,75.80
2018-04-14T04:10:19.978Z,75.53
2018-04-14T04:12:54.059Z,75.32
2018-04-14T04:15:27.452Z,74.95
2018-04-14T04:18:01.016Z,74.86
2018-04-14T04:20:43.452Z,74.92
2018-04-14T04:25:26.408Z,74.67
2018-04-14T04:28:00.255Z,74.39
2018-04-14T04:30:33.789Z,74.53
2018-04-14T04:33:07.151Z,74.29
2018-04-14T04:35:40.261Z,73.47
2018-04-14T04:38:13.276Z,74.52
2018-04-14T04:40:46.253Z,74.71
2018-04-14T04:43:19.688Z,74.77
2018-04-14T04:45:52.637Z,74.48
2018-04-14T04:48:26.126Z,75.07
2018-04-14T04:50:59.435Z,75.22
2018-04-14T04:53:32.557Z,74.54
2018-04-14T04:56:05.701Z,74.96
2018-04-14T04:58:39.421Z,75.19
2018-04-14T05:01:12.595Z,74.93
2018-04-14T05:03:45.843Z,74.83
2018-04-14T05:06:19.326Z,74.81
2018-04-14T05:08:52.467Z,74.63
2018-04-14T05:11:26.098Z,73.39
2018-04-14T05:13:59.164Z,73.07
2018-04-14T05:16:34.363Z,72.77
2018-04-14T05:19:09.691Z,72.41
2018-04-14T05:21:44.798Z,71.83
2018-04-14T05:24:18.160Z,71.59
2018-04-14T05:26:51.577Z,71.03
2018-04-14T05:29:25.036Z,71.92
2018-04-14T05:31:59.803Z,70.96
2018-04-14T05:34:34.492Z,71.09
2018-04-14T05:37:08.720Z,70.64
2018-04-14T05:39:43.073Z,71.31
2018-04-14T05:42:17.271Z,71.23
2018-04-14T05:44:50.656Z,70.76
2018-04-14T05:47:24.045Z,71.52
2018-04-14T05:49:57.542Z,71.17
2018-04-14T05:52:30.805Z,70.14
2018-04-14T05:55:03.774Z,69.99
2018-04-14T05:57:38.332Z,68.82
2018-04-14T06:00:12.061Z,68.75
2018-04-14T06:02:50.907Z,68.60
2018-04-14T06:05:23.943Z,68.34
2018-04-14T06:07:58.483Z,68.25
2018-04-14T06:10:33.957Z,69.00
2018-04-14T06:13:07.603Z,69.55
2018-04-14T06:15:40.760Z,69.50
2018-04-14T06:18:15.195Z,69.49
2018-04-14T06:20:48.484Z,69.30
2018-04-14T06:23:21.521Z,69.08
2018-04-14T06:25:54.868Z,68.95
2018-04-14T06:28:28.508Z,69.20
2018-04-14T06:31:01.734Z,68.50
2018-04-14T06:33:35.236Z,68.42
2018-04-14T06:36:08.455Z,67.87
2018-04-14T06:38:41.501Z,68.04
2018-04-14T06:41:14.905Z,67.71
2018-04-14T06:43:48.289Z,66.83
2018-04-14T06:46:21.893Z,66.91
2018-04-14T06:48:59.168Z,65.91
2018-04-14T06:51:39.097Z,64.87
2018-04-14T06:54:13.330Z,64.36
2018-04-14T06:56:46.695Z,63.45
2018-04-14T06:59:19.737Z,63.44
2018-04-14T07:01:53.211Z,62.92
2018-04-14T07:04:27.216Z,62.45
2018-04-14T07:07:00.859Z,62.57
2018-04-14T07:09:34.394Z,62.70
2018-04-14T07:12:08.516Z,63.94
2018-04-14T07:14:42.745Z,63.64
2018-04-14T07:17:15.866Z,64.19
2018-04-14T07:19:49.053Z,64.41
2018-04-14T07:22:22.911Z,64.43
2018-04-14T07:24:56.324Z,64.45
2018-04-14T07:27:29.885Z,64.47
2018-04-14T07:30:03.758Z,64.27
2018-04-14T07:32:37.307Z,64.39
2018-04-14T07:35:10.696Z,63.87
2018-04-14T07:37:43.991Z,63.63
2018-04-14T07:40:17.497Z,63.01
2018-04-14T07:42:50.536Z,62.09
2018-04-14T07:45:23.909Z,61.89
2018-04-14T07:49:25.878Z,61.31
2018-04-14T07:51:59.110Z,60.21
2018-04-14T07:54:32.644Z,62.01
2018-04-14T07:57:05.813Z,60.85
2018-04-14T07:59:39.707Z,60.04
2018-04-14T08:02:12.783Z,59.84
2018-04-14T08:04:46.232Z,59.89
2018-04-14T08:07:20.163Z,59.91
2018-04-14T08:09:53.718Z,59.11
2018-04-14T08:12:26.759Z,58.71
2018-04-14T08:15:00.486Z,58.72
2018-04-14T08:17:33.828Z,58.18
2018-04-14T08:20:09.092Z,58.52
2018-04-14T08:22:42.824Z,58.03
2018-04-14T08:25:16.342Z,57.78
2018-04-14T08:27:49.744Z,58.09
2018-04-14T08:30:28.338Z,58.69
2018-04-14T08:33:04.891Z,57.67
2018-04-14T08:35:38.467Z,57.86
2018-04-14T08:38:11.649Z,57.45
2018-04-14T08:40:45.025Z,56.42
2018-04-14T08:43:18.100Z,57.12
2018-04-14T08:47:21.221Z,56.04
2018-04-14T08:49:54.989Z,55.36
2018-04-14T08:52:30.031Z,54.17
2018-04-14T08:55:03.015Z,54.56
2018-04-14T08:57:36.915Z,55.68
2018-04-14T09:00:10.850Z,55.68
2018-04-14T09:02:44.371Z,54.76
2018-04-14T09:05:17.866Z,55.64
2018-04-14T09:07:52.163Z,55.00
2018-04-14T09:10:25.215Z,54.51
2018-04-14T09:12:58.452Z,53.29
2018-04-14T09:15:34.556Z,54.13
2018-04-14T09:18:09.444Z,52.82
2018-04-14T09:20:48.890Z,53.69
2018-04-14T09:23:24.511Z,52.91
2018-04-14T09:25:58.321Z,52.62
2018-04-14T09:28:33.180Z,52.18
2018-04-14T09:31:06.783Z,51.74
2018-04-14T09:33:40.103Z,52.95
2018-04-14T09:36:13.999Z,50.83
2018-04-14T09:38:47.275Z,50.57
2018-04-14T09:41:20.592Z,50.67
2018-04-14T09:43:54.371Z,49.97
2018-04-14T09:46:29.003Z,49.49
2018-04-14T09:49:07.754Z,51.21
2018-04-14T09:51:41.140Z,48.36
2018-04-14T09:54:14.961Z,49.93
2018-04-14T09:56:49.642Z,48.84
2018-04-14T09:59:24.131Z,49.56
2018-04-14T10:02:01.919Z,49.79
2018-04-14T10:04:35.861Z,48.68
2018-04-14T10:07:09.532Z,47.28
2018-04-14T10:09:42.925Z,47.47
2018-04-14T10:12:18.912Z,46.49
2018-04-14T10:14:53.568Z,45.18
2018-04-14T10:17:31.200Z,44.20
2018-04-14T10:20:05.266Z,45.32
2018-04-14T10:22:39.653Z,46.58
2018-04-14T10:26:42.381Z,47.33
2018-04-14T10:29:15.839Z,45.75
2018-04-14T10:31:49.326Z,48.46
2018-04-14T10:34:23.197Z,47.75
2018-04-14T10:36:56.870Z,47.55
2018-04-14T10:39:30.525Z,47.70
2018-04-14T10:42:05.093Z,46.76
2018-04-14T10:47:17.465Z,47.39
2018-04-14T10:49:54.658Z,47.61
2018-04-14T10:52:29.175Z,47.04
2018-04-14T10:55:03.040Z,45.47
2018-04-14T10:57:36.800Z,45.86
2018-04-14T11:00:10.187Z,42.96
2018-04-14T11:02:44.220Z,42.25
2018-04-14T11:05:17.496Z,41.67
2018-04-14T11:07:51.011Z,41.42
2018-04-14T11:10:25.826Z,40.17
2018-04-14T11:12:59.978Z,39.03
2018-04-14T11:15:34.359Z,38.56
2018-04-14T11:18:08.024Z,38.16
2018-04-14T11:20:41.500Z,38.23
2018-04-14T11:23:15.013Z,37.98
2018-04-14T11:25:49.035Z,38.03
2018-04-14T11:28:22.316Z,38.22
2018-04-14T11:30:55.856Z,37.93
2018-04-14T11:33:30.075Z,38.43
2018-04-14T11:36:03.676Z,38.11
2018-04-14T11:41:19.464Z,36.49
2018-04-14T11:43:53.142Z,36.71
2018-04-14T11:46:29.872Z,36.16
2018-04-14T11:49:03.289Z,35.80
2018-04-14T11:51:36.714Z,36.05
2018-04-14T11:54:12.514Z,36.52
2018-04-14T11:56:47.961Z,35.50
2018-04-14T11:59:21.334Z,35.92
2018-04-14T12:01:54.877Z,36.52
2018-04-14T12:04:28.821Z,36.67
2018-04-14T12:07:02.343Z,35.57
2018-04-14T12:09:37.926Z,36.48
2018-04-14T12:12:12.790Z,36.61
2018-04-14T12:14:46.406Z,35.20
2018-04-14T12:17:20.002Z,36.38
2018-04-14T12:19:54.923Z,35.54
2018-04-14T12:22:28.592Z,36.54
2018-04-14T12:25:03.570Z,35.75
2018-04-14T12:27:38.033Z,36.01
2018-04-14T12:30:13.420Z,35.34
2018-04-14T12:32:47.461Z,35.48
2018-04-14T12:35:20.836Z,36.31
2018-04-14T12:37:59.786Z,36.62
2018-04-14T12:40:34.263Z,37.18
2018-04-14T12:43:11.634Z,34.92
2018-04-14T12:45:55.247Z,34.95
2018-04-14T12:48:30.419Z,34.84
2018-04-14T12:51:03.986Z,35.97
2018-04-14T12:53:37.673Z,35.66
2018-04-14T12:56:11.083Z,34.92
2018-04-14T12:58:44.424Z,35.36
2018-04-14T13:01:19.559Z,35.74
2018-04-14T13:03:52.737Z,35.34
2018-04-14T13:06:27.319Z,36.03
2018-04-14T13:09:36.219Z,35.55
2018-04-14T13:12:09.933Z,36.27
2018-04-14T13:14:43.508Z,36.75
2018-04-14T13:17:32.043Z,35.89
2018-04-14T13:20:12.823Z,35.66
2018-04-14T13:23:05.865Z,35.23
2018-04-14T13:25:49.578Z,35.96
2018-04-14T13:28:23.308Z,35.90
2018-04-14T13:30:57.079Z,36.48
2018-04-14T13:33:32.354Z,36.08
2018-04-14T13:36:06.511Z,36.62
2018-04-14T13:38:40.139Z,35.75
2018-04-14T13:41:14.200Z,35.03
2018-04-14T13:43:48.225Z,35.17
2018-04-14T13:46:21.890Z,35.21
2018-04-14T13:48:56.681Z,36.39
2018-04-14T13:51:35.383Z,35.29
2018-04-14T13:54:10.751Z,38.63
2018-04-14T13:56:44.952Z,36.96
2018-04-14T13:59:19.435Z,36.53
2018-04-14T14:01:54.734Z,35.29
2018-04-14T14:04:32.065Z,34.22
2018-04-14T14:07:07.799Z,33.99
2018-04-14T14:12:06.793Z,34.11
2018-04-14T14:14:40.367Z,34.62
2018-04-14T14:17:13.877Z,34.14
2018-04-14T14:19:52.965Z,33.08
2018-04-14T14:22:29.722Z,32.90
2018-04-14T14:25:03.616Z,33.10
2018-04-14T14:27:36.904Z,32.57
2018-04-14T14:30:10.872Z,32.89
2018-04-14T14:32:44.252Z,32.75
2018-04-14T14:35:17.630Z,33.16
2018-04-14T14:37:52.315Z,33.56
2018-04-14T14:40:26.027Z,33.04
2018-04-14T14:42:59.618Z,33.72
2018-04-14T14:45:35.379Z,33.23
2018-04-14T14:48:10.406Z,34.21
2018-04-14T14:50:44.074Z,33.56
2018-04-14T14:53:17.344Z,34.01
2018-04-14T14:55:56.783Z,34.37
2018-04-14T14:58:31.931Z,33.98
2018-04-14T15:01:05.395Z,34.04
2018-04-14T15:03:39.330Z,33.59
2018-04-14T15:06:16.429Z,33.79
2018-04-14T15:08:50.289Z,33.87
2018-04-14T15:11:24.480Z,33.31
2018-04-14T15:14:02.049Z,33.29
2018-04-14T15:16:36.648Z,33.80
2018-04-14T15:19:11.666Z,33.70
2018-04-14T15:21:46.610Z,33.84
2018-04-14T15:24:20.847Z,34.49
2018-04-14T15:26:54.470Z,34.49
2018-04-14T15:29:28.484Z,33.90
2018-04-14T15:32:02.211Z,33.67
2018-04-14T15:34:36.064Z,34.00
2018-04-14T15:37:09.412Z,33.98
2018-04-14T15:39:42.953Z,34.15
2018-04-14T15:42:18.526Z,34.25
2018-04-14T15:44:53.796Z,34.34
2018-04-14T15:47:28.899Z,34.95
2018-04-14T15:50:05.298Z,35.12
2018-04-14T15:52:44.552Z,34.52
2018-04-14T15:55:19.369Z,35.18
2018-04-14T15:57:53.087Z,34.55
2018-04-14T16:00:26.422Z,34.79
2018-04-14T16:03:00.107Z,34.25
2018-04-14T16:05:33.470Z,34.69
2018-04-14T16:08:07.146Z,34.04
2018-04-14T16:10:42.164Z,33.83
2018-04-14T16:13:15.652Z,33.83
2018-04-14T16:15:49.450Z,34.46
2018-04-14T16:18:23.354Z,34.75
2018-04-14T16:20:56.634Z,35.48
2018-04-14T16:26:10.561Z,36.05
2018-04-14T16:34:49.686Z,37.48
2018-04-14T16:39:04.114Z,37.56
2018-04-14T16:41:38.026Z,37.85
2018-04-14T16:44:11.728Z,38.33
2018-04-14T16:46:48.836Z,38.27
2018-04-14T16:49:24.937Z,39.73
2018-04-14T16:51:58.854Z,38.88
2018-04-14T16:54:32.504Z,38.95
2018-04-14T16:57:07.941Z,38.83
2018-04-14T16:59:42.779Z,41.46
2018-04-14T17:02:21.774Z,41.29
2018-04-14T17:04:57.572Z,42.90
2018-04-14T17:07:39.812Z,44.65
2018-04-14T17:10:14.801Z,46.60
2018-04-14T17:12:55.466Z,47.23
2018-04-14T17:15:33.211Z,48.85
2018-04-14T17:18:10.300Z,49.08
2018-04-14T17:20:44.194Z,50.01
2018-04-14T17:23:18.148Z,51.05
2018-04-14T17:25:53.196Z,52.18
2018-04-14T17:28:36.565Z,52.34
2018-04-14T17:31:18.474Z,52.90
2018-04-14T17:33:56.220Z,53.95
2018-04-14T17:36:34.555Z,54.47
2018-04-14T17:39:14.572Z,55.31
2018-04-14T17:41:48.903Z,55.51
2018-04-14T17:44:29.878Z,55.86
2018-04-14T17:47:04.724Z,56.27
2018-04-14T17:49:38.603Z,56.78
2018-04-14T17:52:13.913Z,56.51
2018-04-14T17:54:47.482Z,57.24
2018-04-14T17:57:22.326Z,57.46
2018-04-14T18:00:23.491Z,57.31
2018-04-14T18:02:58.464Z,57.59
2018-04-14T18:05:32.573Z,57.71
2018-04-14T18:08:08.100Z,57.74
2018-04-14T18:10:41.817Z,57.91
2018-04-14T18:13:17.729Z,58.09
2018-04-14T18:15:52.803Z,58.44
2018-04-14T18:18:27.173Z,58.09
2018-04-14T18:21:01.349Z,58.12
2018-04-14T18:23:38.252Z,58.33
2018-04-14T18:26:17.216Z,58.40
2018-04-14T18:28:58.305Z,58.50
2018-04-14T18:31:43.564Z,58.68
2018-04-14T18:34:23.042Z,58.66
2018-04-14T18:36:59.518Z,58.99
2018-04-14T18:39:34.026Z,59.12
2018-04-14T18:42:10.577Z,59.53
2018-04-14T18:44:44.516Z,59.57
2018-04-14T18:47:18.057Z,59.54
2018-04-14T18:49:51.658Z,59.48
2018-04-14T18:52:26.718Z,59.64
2018-04-14T18:55:02.155Z,59.61
2018-04-14T18:57:35.780Z,60.00
2018-04-14T19:00:10.126Z,59.63
2018-04-14T19:02:50.625Z,60.08
2018-04-14T19:05:25.854Z,60.24
2018-04-14T19:07:59.619Z,60.35
2018-04-14T19:10:34.720Z,60.36
2018-04-14T19:13:08.035Z,60.98
2018-04-14T19:15:41.889Z,60.97
2018-04-14T19:18:15.290Z,60.87
2018-04-14T19:20:48.679Z,61.34
2018-04-14T19:23:22.305Z,61.07
2018-04-14T19:25:55.899Z,61.60
2018-04-14T19:28:29.595Z,61.60
2018-04-14T19:31:03.672Z,60.92
2018-04-14T19:33:37.052Z,61.13
2018-04-14T19:36:10.613Z,61.74
2018-04-14T19:38:45.181Z,60.81
2018-04-14T19:41:19.267Z,60.74
2018-04-14T19:43:52.713Z,62.50
2018-04-14T19:46:27.107Z,62.44
2018-04-14T19:49:04.677Z,61.35
2018-04-14T19:51:40.797Z,62.72
2018-04-14T19:54:14.622Z,62.96
2018-04-14T19:56:57.875Z,62.70
2018-04-14T19:59:32.300Z,63.36
2018-04-14T20:02:09.041Z,63.33
2018-04-14T20:04:43.365Z,63.21
2018-04-14T20:07:17.012Z,63.18
2018-04-14T20:09:51.502Z,63.16
2018-04-14T20:12:25.472Z,63.28
2018-04-14T20:17:36.187Z,63.16
2018-04-14T20:20:11.412Z,63.92
2018-04-14T20:22:45.376Z,64.21
2018-04-14T20:25:22.326Z,64.18
2018-04-14T20:27:57.929Z,64.58
2018-04-14T20:30:32.070Z,64.62
2018-04-14T20:33:06.090Z,64.51
2018-04-14T20:37:09.074Z,64.82
2018-04-14T20:39:45.220Z,65.75
2018-04-14T20:42:18.856Z,66.43
2018-04-14T20:45:04.932Z,66.50
2018-04-14T20:47:41.047Z,67.02
2018-04-14T20:50:15.252Z,67.25
2018-04-14T20:52:48.932Z,67.25
2018-04-14T20:55:24.181Z,67.29
2018-04-14T20:57:57.966Z,67.20
2018-04-14T21:00:31.203Z,67.46
2018-04-14T21:03:04.493Z,67.58
2018-04-14T21:05:37.896Z,67.75
2018-04-14T21:08:11.248Z,67.94
2018-04-14T21:10:47.281Z,67.67
2018-04-14T21:13:21.054Z,66.90
2018-04-14T21:15:56.383Z,67.21
2018-04-14T21:18:36.248Z,67.36
2018-04-14T21:21:09.530Z,67.31
2018-04-14T21:23:43.080Z,67.33
2018-04-14T21:26:16.526Z,67.65
2018-04-14T21:28:50.167Z,67.73
2018-04-14T21:31:23.614Z,68.62
2018-04-14T21:34:00.595Z,68.84
2018-04-14T21:36:34.352Z,69.33
2018-04-14T21:39:09.563Z,69.45
2018-04-14T21:41:44.971Z,70.04
2018-04-14T21:44:21.797Z,69.66
2018-04-14T21:47:07.369Z,69.85
2018-04-14T21:49:41.368Z,69.80
2018-04-14T21:52:14.779Z,70.24
2018-04-14T21:54:48.093Z,70.45
2018-04-14T21:57:21.922Z,70.96
2018-04-14T21:59:55.202Z,71.38
2018-04-14T22:02:28.619Z,71.68
2018-04-14T22:05:03.198Z,71.47
2018-04-14T22:07:36.558Z,71.36
2018-04-14T22:10:10.384Z,71.66
2018-04-14T22:12:44.052Z,71.74
2018-04-14T22:15:17.419Z,72.05
2018-04-14T22:17:50.687Z,72.28
2018-04-14T22:20:24.623Z,72.52
2018-04-14T22:22:57.985Z,72.43
2018-04-14T22:25:32.703Z,72.41
2018-04-14T22:28:06.765Z,72.56
2018-04-14T22:30:40.033Z,72.76
2018-04-14T22:33:13.960Z,72.54
2018-04-14T22:35:48.692Z,72.15
2018-04-14T22:38:23.748Z,72.82
2018-04-14T22:40:57.090Z,72.67
2018-04-14T22:43:30.916Z,72.52
2018-04-14T22:46:04.344Z,72.88
2018-04-14T22:48:37.574Z,72.78
2018-04-14T22:51:14.226Z,72.44
2018-04-14T22:53:48.596Z,72.57
2018-04-14T22:56:22.111Z,72.64
2018-04-14T22:58:55.576Z,72.93
2018-04-14T23:01:29.170Z,72.70
2018-04-14T23:04:06.068Z,72.76
2018-04-14T23:06:41.518Z,72.78
2018-04-14T23:09:17.399Z,72.93
2018-04-14T23:11:51.370Z,72.77
2018-04-14T23:14:24.808Z,72.44
2018-04-14T23:16:58.081Z,72.37
2018-04-14T23:19:31.946Z,72.59
2018-04-14T23:22:05.695Z,72.67
2018-04-14T23:24:38.849Z,72.70
2018-04-14T23:27:12.377Z,72.67
2018-04-14T23:29:46.389Z,73.06
2018-04-14T23:32:19.651Z,73.37
2018-04-14T23:34:53.129Z,73.58
2018-04-14T23:37:26.840Z,73.78
2018-04-14T23:40:00.172Z,73.67
2018-04-14T23:42:34.820Z,73.47
2018-04-14T23:45:08.150Z,73.36
2018-04-14T23:47:41.427Z,73.68
2018-04-14T23:50:14.974Z,74.08
2018-04-14T23:52:48.167Z,74.04
2018-04-14T23:55:22.269Z,74.42
2018-04-14T23:57:55.913Z,74.25
